createdAt,value
2023-01-29T00:03:57.558Z,-3.33
2023-01-29T00:06:43.450Z,-3.32
2023-01-29T00:09:29.482Z,-3.51
2023-01-29T00:12:15.325Z,-3.22
2023-01-29T00:15:01.229Z,-3.19
2023-01-29T00:17:47.318Z,-3.40
2023-01-29T00:20:33.176Z,-3.12
2023-01-29T00:23:19.154Z,-3.21
2023-01-29T00:26:05.060Z,-3.24
2023-01-29T00:28:50.969Z,-3.17
2023-01-29T00:31:37.025Z,-3.28
2023-01-29T00:34:22.922Z,-3.20
2023-01-29T00:37:08.859Z,-3.53
2023-01-29T00:39:54.841Z,-3.25
2023-01-29T00:42:40.673Z,-3.13
2023-01-29T00:45:26.593Z,-3.21
2023-01-29T00:48:12.643Z,-3.35
2023-01-29T00:50:58.493Z,-3.42
2023-01-29T00:53:44.445Z,-3.34
2023-01-29T00:56:30.165Z,-3.37
2023-01-29T00:59:16.100Z,-3.42
2023-01-29T01:02:02.187Z,-3.34
2023-01-29T01:04:48.181Z,-3.35
2023-01-29T01:07:34.116Z,-3.23
2023-01-29T01:10:20.155Z,-3.57
2023-01-29T01:13:06.046Z,-3.31
2023-01-29T01:15:52.021Z,-3.41
2023-01-29T01:18:37.921Z,-3.42
2023-01-29T01:21:23.881Z,-3.47
2023-01-29T01:24:09.823Z,-3.41
2023-01-29T01:26:55.705Z,-3.18
2023-01-29T01:29:41.896Z,-3.16
2023-01-29T01:32:27.755Z,-3.09
2023-01-29T01:35:13.562Z,-3.32
2023-01-29T01:37:59.530Z,-3.40
2023-01-29T01:40:45.354Z,-3.50
2023-01-29T01:43:31.282Z,-3.53
2023-01-29T01:46:17.306Z,-3.50
2023-01-29T01:49:03.204Z,-3.37
2023-01-29T01:51:49.055Z,-3.49
2023-01-29T01:54:34.826Z,-3.53
2023-01-29T01:57:20.686Z,-3.54
2023-01-29T02:00:06.602Z,-3.73
2023-01-29T02:02:52.494Z,-3.53
2023-01-29T02:05:38.312Z,-3.27
2023-01-29T02:08:24.189Z,-3.32
2023-01-29T02:11:10.135Z,-3.31
2023-01-29T02:13:56.201Z,-3.12
2023-01-29T02:16:41.883Z,-3.26
2023-01-29T02:19:27.895Z,-3.58
2023-01-29T02:22:13.834Z,-3.33
2023-01-29T02:24:59.651Z,-3.43
2023-01-29T02:27:45.544Z,-3.30
2023-01-29T02:30:31.325Z,-3.53
2023-01-29T02:33:17.320Z,-3.51
2023-01-29T02:36:03.355Z,-3.47
2023-01-29T02:38:49.177Z,-3.56
2023-01-29T02:41:35.097Z,-3.46
2023-01-29T02:44:20.983Z,-3.40
2023-01-29T02:47:06.757Z,-3.43
2023-01-29T02:49:52.607Z,-3.23
2023-01-29T02:52:40.583Z,-3.27
2023-01-29T02:55:26.497Z,-3.30
2023-01-29T02:58:12.458Z,-3.29
2023-01-29T03:00:58.497Z,-3.43
2023-01-29T03:03:44.514Z,-3.39
2023-01-29T03:06:30.588Z,-3.35
2023-01-29T03:09:16.332Z,-3.27
2023-01-29T03:12:02.312Z,-3.56
2023-01-29T03:14:50.354Z,-3.43
2023-01-29T03:17:36.200Z,-3.41
2023-01-29T03:20:22.128Z,-3.44
2023-01-29T03:23:08.014Z,-3.32
2023-01-29T03:25:53.835Z,-3.38
2023-01-29T03:28:39.787Z,-3.49
2023-01-29T03:31:25.619Z,-3.32
2023-01-29T03:34:12.022Z,-3.45
2023-01-29T03:36:57.912Z,-3.37
2023-01-29T03:39:43.842Z,-3.42
2023-01-29T03:42:29.758Z,-3.39
2023-01-29T03:45:15.738Z,-3.21
2023-01-29T03:48:01.688Z,-3.39
2023-01-29T03:50:47.652Z,-3.37
2023-01-29T03:53:33.453Z,-3.46
2023-01-29T03:56:19.154Z,-3.14
2023-01-29T03:59:05.243Z,-3.44
2023-01-29T04:01:51.065Z,-3.54
2023-01-29T04:04:36.940Z,-3.40
2023-01-29T04:07:22.823Z,-3.26
2023-01-29T04:10:08.666Z,-3.23
2023-01-29T04:12:54.757Z,-3.00
2023-01-29T04:15:40.564Z,-2.81
2023-01-29T04:18:26.498Z,-3.35
2023-01-29T04:21:12.483Z,-3.20
2023-01-29T04:23:58.418Z,-3.12
2023-01-29T04:26:44.415Z,-3.23
2023-01-29T04:29:30.404Z,-3.34
2023-01-29T04:32:16.567Z,-3.32
2023-01-29T04:35:02.472Z,-3.19
2023-01-29T04:37:48.340Z,-3.25
2023-01-29T04:40:34.366Z,-3.18
2023-01-29T04:43:22.258Z,-3.16
2023-01-29T04:46:08.139Z,-3.14
2023-01-29T04:48:54.061Z,-3.23
2023-01-29T04:51:39.986Z,-3.28
2023-01-29T04:54:25.904Z,-3.35
2023-01-29T04:57:11.812Z,-3.22
2023-01-29T04:59:57.698Z,-3.16
2023-01-29T05:02:43.794Z,-3.03
2023-01-29T05:05:29.716Z,-2.60
2023-01-29T05:08:15.605Z,-3.17
2023-01-29T05:11:01.594Z,-3.17
2023-01-29T05:13:47.514Z,-3.13
2023-01-29T05:16:33.374Z,-2.96
2023-01-29T05:19:19.243Z,-2.77
2023-01-29T05:22:05.159Z,-3.08
2023-01-29T05:24:51.007Z,-3.15
2023-01-29T05:27:37.078Z,-2.99
2023-01-29T05:30:22.957Z,-3.01
2023-01-29T05:33:08.829Z,-2.91
2023-01-29T05:35:54.672Z,-3.27
2023-01-29T05:38:42.658Z,-2.89
2023-01-29T05:41:28.664Z,-3.21
2023-01-29T05:44:14.493Z,-3.08
2023-01-29T05:47:00.471Z,-2.87
2023-01-29T05:49:46.409Z,-2.97
2023-01-29T05:52:32.208Z,-2.35
2023-01-29T05:55:18.491Z,-3.06
2023-01-29T05:58:05.958Z,-2.76
2023-01-29T06:00:51.970Z,-3.15
2023-01-29T06:03:38.128Z,-2.79
2023-01-29T06:06:24.098Z,-2.63
2023-01-29T06:09:10.001Z,-2.53
2023-01-29T06:11:55.868Z,-3.22
2023-01-29T06:14:41.759Z,-3.36
2023-01-29T06:17:27.682Z,-3.09
2023-01-29T06:20:13.725Z,-3.22
2023-01-29T06:22:59.623Z,-2.98
2023-01-29T06:25:45.537Z,-2.82
2023-01-29T06:28:31.425Z,-2.94
2023-01-29T06:31:36.723Z,-2.91
2023-01-29T06:34:23.390Z,-2.57
2023-01-29T06:37:09.313Z,-2.91
2023-01-29T06:39:55.173Z,-3.28
2023-01-29T06:42:41.065Z,-3.19
2023-01-29T06:45:26.849Z,-3.06
2023-01-29T06:48:12.884Z,-3.17
2023-01-29T06:50:58.706Z,-3.12
2023-01-29T06:53:46.205Z,-2.78
2023-01-29T06:56:32.645Z,-2.79
2023-01-29T06:59:18.608Z,-2.99
2023-01-29T07:02:04.489Z,-2.82
2023-01-29T07:04:50.430Z,-2.57
2023-01-29T07:07:36.315Z,-2.84
2023-01-29T07:10:22.073Z,-2.91
2023-01-29T07:13:07.944Z,-2.54
2023-01-29T07:15:53.686Z,-2.67
2023-01-29T07:18:39.643Z,-2.55
2023-01-29T07:21:25.596Z,-2.98
2023-01-29T07:24:11.491Z,-3.12
2023-01-29T07:26:57.251Z,-2.95
2023-01-29T07:29:43.017Z,-2.81
2023-01-29T07:32:28.873Z,-2.68
2023-01-29T07:35:14.781Z,-2.53
2023-01-29T07:38:00.654Z,-2.42
2023-01-29T07:40:46.545Z,-2.31
2023-01-29T07:43:32.344Z,-2.42
2023-01-29T07:46:20.176Z,-2.76
2023-01-29T07:49:06.204Z,-2.60
2023-01-29T07:51:52.097Z,-2.28
2023-01-29T07:54:38.043Z,-1.80
2023-01-29T07:57:24.010Z,-2.03
2023-01-29T08:00:09.941Z,-2.12
2023-01-29T08:02:55.940Z,-1.74
2023-01-29T08:05:41.824Z,-2.03
2023-01-29T08:08:27.677Z,-2.50
2023-01-29T08:11:13.756Z,-2.08
2023-01-29T08:13:59.586Z,-2.16
2023-01-29T08:16:45.525Z,-1.64
2023-01-29T08:19:31.582Z,-2.33
2023-01-29T08:22:17.398Z,-2.60
2023-01-29T08:25:08.337Z,-2.32
2023-01-29T08:27:54.434Z,-2.34
2023-01-29T08:30:42.314Z,-2.31
2023-01-29T08:33:40.071Z,-2.00
2023-01-29T08:36:26.087Z,-2.04
2023-01-29T08:39:11.910Z,-2.40
2023-01-29T08:41:57.861Z,-2.22
2023-01-29T08:44:43.666Z,-2.40
2023-01-29T08:47:29.761Z,-2.11
2023-01-29T08:50:16.234Z,-2.55
2023-01-29T08:53:02.320Z,-2.01
2023-01-29T08:55:48.187Z,-1.99
2023-01-29T08:58:34.446Z,-2.03
2023-01-29T09:01:20.411Z,-2.16
2023-01-29T09:04:06.375Z,-1.86
2023-01-29T09:06:52.191Z,-2.16
2023-01-29T09:09:38.133Z,-0.89
2023-01-29T09:12:23.935Z,-1.59
2023-01-29T09:15:09.764Z,-1.50
2023-01-29T09:17:55.731Z,-1.43
2023-01-29T09:20:41.654Z,-1.19
2023-01-29T09:23:27.472Z,-0.80
2023-01-29T09:26:13.483Z,-0.84
2023-01-29T09:28:59.330Z,-0.93
2023-01-29T09:31:45.316Z,-1.49
2023-01-29T09:34:31.189Z,-1.98
2023-01-29T09:37:16.997Z,-1.34
2023-01-29T09:40:02.806Z,-1.73
2023-01-29T09:42:48.722Z,-1.27
2023-01-29T09:45:36.553Z,-0.85
2023-01-29T09:48:22.554Z,-0.70
2023-01-29T09:51:08.382Z,-0.51
2023-01-29T09:53:54.311Z,-0.81
2023-01-29T09:56:40.160Z,-0.22
2023-01-29T09:59:25.981Z,-1.21
2023-01-29T10:02:12.154Z,-1.64
2023-01-29T10:04:58.570Z,-2.12
2023-01-29T10:07:44.361Z,-1.99
2023-01-29T10:10:30.217Z,-2.47
2023-01-29T10:13:16.083Z,-2.45
2023-01-29T10:16:01.939Z,-2.08
2023-01-29T10:18:47.838Z,-1.33
2023-01-29T10:21:33.582Z,-0.74
2023-01-29T10:24:19.657Z,-1.22
2023-01-29T10:27:05.497Z,-2.38
2023-01-29T10:29:51.281Z,-1.96
2023-01-29T10:32:37.232Z,-2.00
2023-01-29T10:35:23.171Z,-1.93
2023-01-29T10:38:09.034Z,-1.95
2023-01-29T10:40:55.092Z,-1.53
2023-01-29T10:43:40.960Z,-1.19
2023-01-29T10:46:26.799Z,-1.78
2023-01-29T10:49:12.600Z,-2.12
2023-01-29T10:51:58.530Z,-1.80
2023-01-29T10:54:44.469Z,-0.95
2023-01-29T10:57:30.431Z,-1.31
2023-01-29T11:00:16.339Z,-1.01
2023-01-29T11:03:02.540Z,-0.65
2023-01-29T11:05:48.612Z,-1.32
2023-01-29T11:08:34.559Z,-1.65
2023-01-29T11:11:20.461Z,-1.28
2023-01-29T11:14:06.333Z,-1.76
2023-01-29T11:16:52.423Z,-1.40
2023-01-29T11:19:38.281Z,-0.90
2023-01-29T11:22:24.237Z,-0.40
2023-01-29T11:25:10.160Z,-0.63
2023-01-29T11:27:56.118Z,-0.86
2023-01-29T11:30:42.131Z,-0.80
2023-01-29T11:33:28.067Z,0.16
2023-01-29T11:36:13.944Z,0.61
2023-01-29T11:38:59.899Z,-0.86
2023-01-29T11:41:45.699Z,0.04
2023-01-29T11:44:31.542Z,0.29
2023-01-29T11:47:17.555Z,0.14
2023-01-29T11:50:03.535Z,0.03
2023-01-29T11:52:49.456Z,0.42
2023-01-29T11:55:49.483Z,1.15
2023-01-29T11:58:36.009Z,1.45
2023-01-29T12:01:21.970Z,1.86
2023-01-29T12:04:07.831Z,1.67
2023-01-29T12:06:53.807Z,2.30
2023-01-29T12:09:39.602Z,0.97
2023-01-29T12:12:25.367Z,1.14
2023-01-29T12:15:11.296Z,1.79
2023-01-29T12:17:57.193Z,2.63
2023-01-29T12:20:43.132Z,3.02
2023-01-29T12:23:29.136Z,2.62
2023-01-29T12:26:15.103Z,1.78
2023-01-29T12:29:01.162Z,1.61
2023-01-29T12:31:47.056Z,1.77
2023-01-29T12:34:32.909Z,1.95
2023-01-29T12:37:18.721Z,1.77
2023-01-29T12:40:04.736Z,1.46
2023-01-29T12:42:50.769Z,0.90
2023-01-29T12:45:36.569Z,1.18
2023-01-29T12:48:22.316Z,1.58
2023-01-29T12:51:08.240Z,2.12
2023-01-29T12:53:54.161Z,2.04
2023-01-29T12:56:40.108Z,2.01
2023-01-29T12:59:27.429Z,2.28
2023-01-29T13:02:14.818Z,2.34
2023-01-29T13:05:00.816Z,2.37
2023-01-29T13:07:46.664Z,1.82
2023-01-29T13:10:32.638Z,0.71
2023-01-29T13:13:18.366Z,0.17
2023-01-29T13:16:04.564Z,0.02
2023-01-29T13:18:50.410Z,0.22
2023-01-29T13:21:36.470Z,0.93
2023-01-29T13:24:22.187Z,0.75
2023-01-29T13:27:08.079Z,-0.09
2023-01-29T13:29:54.128Z,0.77
2023-01-29T13:32:39.973Z,0.34
2023-01-29T13:35:25.910Z,0.75
2023-01-29T13:38:11.887Z,0.22
2023-01-29T13:40:57.822Z,0.33
2023-01-29T13:43:43.760Z,0.13
2023-01-29T13:46:29.666Z,0.20
2023-01-29T13:49:15.514Z,0.40
2023-01-29T13:52:01.464Z,0.23
2023-01-29T13:54:47.374Z,0.14
2023-01-29T13:57:33.432Z,0.02
2023-01-29T14:00:19.282Z,-0.45
2023-01-29T14:03:05.259Z,-0.54
2023-01-29T14:05:51.198Z,-0.48
2023-01-29T14:08:37.032Z,-0.54
2023-01-29T14:11:22.877Z,0.16
2023-01-29T14:14:08.762Z,0.46
2023-01-29T14:16:54.630Z,-0.11
2023-01-29T14:19:40.680Z,-0.19
2023-01-29T14:22:26.505Z,-0.96
2023-01-29T14:25:12.366Z,-0.94
2023-01-29T14:27:58.318Z,-1.42
2023-01-29T14:30:44.307Z,-1.33
2023-01-29T14:33:30.321Z,-0.84
2023-01-29T14:36:16.280Z,-0.96
2023-01-29T14:39:02.138Z,-0.67
2023-01-29T14:41:48.107Z,-0.52
2023-01-29T14:44:34.046Z,-0.10
2023-01-29T14:47:20.071Z,-0.82
2023-01-29T14:50:06.112Z,-1.62
2023-01-29T14:52:51.984Z,-1.37
2023-01-29T14:55:38.030Z,-0.59
2023-01-29T14:58:23.882Z,-0.22
2023-01-29T15:01:09.907Z,-0.29
2023-01-29T15:03:55.941Z,0.27
2023-01-29T15:06:41.889Z,0.34
2023-01-29T15:09:35.933Z,0.62
2023-01-29T15:12:22.629Z,0.91
2023-01-29T15:15:08.521Z,1.27
2023-01-29T15:17:54.466Z,2.16
2023-01-29T15:20:40.329Z,2.51
2023-01-29T15:23:26.312Z,2.76
2023-01-29T15:26:12.242Z,3.08
2023-01-29T15:29:04.329Z,3.27
2023-01-29T15:31:51.322Z,3.31
2023-01-29T15:34:37.595Z,3.60
2023-01-29T15:37:23.416Z,3.80
2023-01-29T15:40:09.529Z,3.71
2023-01-29T15:42:55.507Z,3.59
2023-01-29T15:45:41.467Z,3.10
2023-01-29T15:48:27.373Z,3.14
2023-01-29T15:51:13.233Z,3.08
2023-01-29T15:53:59.228Z,2.28
2023-01-29T15:56:45.094Z,1.46
2023-01-29T15:59:30.932Z,0.81
2023-01-29T16:02:16.933Z,0.40
2023-01-29T16:05:02.793Z,0.43
2023-01-29T16:07:48.823Z,0.30
2023-01-29T16:10:34.746Z,0.83
2023-01-29T16:13:20.629Z,1.37
2023-01-29T16:16:06.729Z,1.41
2023-01-29T16:19:00.070Z,1.86
2023-01-29T16:21:47.427Z,2.45
2023-01-29T16:24:33.232Z,2.81
2023-01-29T16:27:19.069Z,2.93
2023-01-29T16:30:05.057Z,2.48
2023-01-29T16:32:51.026Z,2.15
2023-01-29T16:35:36.951Z,2.19
2023-01-29T16:38:22.954Z,2.35
2023-01-29T16:41:08.887Z,2.63
2023-01-29T16:43:54.904Z,2.81
2023-01-29T16:46:41.041Z,3.21
2023-01-29T16:49:27.068Z,3.42
2023-01-29T16:52:13.084Z,3.17
2023-01-29T16:54:58.941Z,2.90
2023-01-29T16:57:44.794Z,2.50
2023-01-29T17:00:30.630Z,2.32
2023-01-29T17:03:16.806Z,2.33
2023-01-29T17:06:02.701Z,2.38
2023-01-29T17:08:48.607Z,2.77
2023-01-29T17:11:34.595Z,2.47
2023-01-29T17:14:20.475Z,1.75
2023-01-29T17:17:06.463Z,1.53
2023-01-29T17:19:52.421Z,0.95
2023-01-29T17:22:38.316Z,0.51
2023-01-29T17:25:24.470Z,0.56
2023-01-29T17:28:10.679Z,0.72
2023-01-29T17:31:05.877Z,1.27
2023-01-29T17:33:52.922Z,-0.14
2023-01-29T17:36:38.769Z,-0.34
2023-01-29T17:39:24.869Z,-0.42
2023-01-29T17:42:12.803Z,-1.02
2023-01-29T17:44:58.626Z,-1.30
2023-01-29T17:47:44.542Z,-1.40
2023-01-29T17:50:30.516Z,-1.75
2023-01-29T17:53:16.485Z,-1.98
2023-01-29T17:56:02.464Z,-2.47
2023-01-29T17:58:48.336Z,-2.49
2023-01-29T18:01:36.249Z,-2.70
2023-01-29T18:04:22.293Z,-2.79
2023-01-29T18:07:08.176Z,-2.72
2023-01-29T18:09:54.261Z,-3.17
2023-01-29T18:12:40.540Z,-3.35
2023-01-29T18:15:26.483Z,-3.58
2023-01-29T18:18:13.470Z,-3.15
2023-01-29T18:20:59.372Z,-2.94
2023-01-29T18:23:45.303Z,-2.26
2023-01-29T18:26:31.220Z,-1.69
2023-01-29T18:29:17.176Z,-1.18
2023-01-29T18:32:03.046Z,-1.43
2023-01-29T18:34:49.397Z,-1.91
2023-01-29T18:37:35.247Z,-1.95
2023-01-29T18:40:21.242Z,-1.62
2023-01-29T18:43:07.137Z,-1.11
2023-01-29T18:45:53.169Z,-0.70
2023-01-29T18:48:41.600Z,-1.10
2023-01-29T18:51:28.326Z,-1.04
2023-01-29T18:54:14.195Z,-0.85
2023-01-29T18:57:11.150Z,-1.21
2023-01-29T19:00:00.118Z,-2.05
2023-01-29T19:02:46.546Z,-1.90
2023-01-29T19:05:32.498Z,-1.51
2023-01-29T19:08:18.538Z,-1.94
2023-01-29T19:11:04.457Z,-2.34
2023-01-29T19:13:50.448Z,-2.18
2023-01-29T19:16:38.393Z,-1.93
2023-01-29T19:19:24.376Z,-1.78
2023-01-29T19:22:10.275Z,-1.91
2023-01-29T19:24:56.211Z,-1.87
2023-01-29T19:27:42.169Z,-1.16
2023-01-29T19:30:28.045Z,-0.99
2023-01-29T19:33:14.114Z,-1.24
2023-01-29T19:36:00.062Z,-0.89
2023-01-29T19:38:45.932Z,-0.66
2023-01-29T19:41:31.880Z,-0.86
2023-01-29T19:44:17.730Z,-0.99
2023-01-29T19:47:03.645Z,-0.50
2023-01-29T19:49:49.590Z,-0.29
2023-01-29T19:52:50.151Z,-0.42
2023-01-29T19:55:37.006Z,-0.89
2023-01-29T19:58:22.992Z,-1.30
2023-01-29T20:01:08.964Z,-2.59
2023-01-29T20:03:55.004Z,-3.83
2023-01-29T20:06:40.941Z,-4.14
2023-01-29T20:09:26.877Z,-3.75
2023-01-29T20:12:12.937Z,-4.37
2023-01-29T20:14:58.698Z,-3.48
2023-01-29T20:17:44.587Z,-3.07
2023-01-29T20:20:32.614Z,-3.48
2023-01-29T20:23:35.233Z,-3.76
2023-01-29T20:26:23.027Z,-3.71
2023-01-29T20:29:09.439Z,-4.14
2023-01-29T20:31:55.296Z,-4.44
2023-01-29T20:34:41.201Z,-4.05
2023-01-29T20:37:27.204Z,-3.40
2023-01-29T20:40:13.166Z,-3.45
2023-01-29T20:42:59.146Z,-2.71
2023-01-29T20:45:44.976Z,-2.61
2023-01-29T20:48:31.339Z,-2.81
2023-01-29T20:51:17.242Z,-2.89
2023-01-29T20:54:03.100Z,-2.89
2023-01-29T20:56:49.078Z,-2.55
2023-01-29T20:59:35.087Z,-2.71
2023-01-29T21:02:21.108Z,-2.64
2023-01-29T21:05:07.105Z,-3.43
2023-01-29T21:07:53.075Z,-3.84
2023-01-29T21:10:38.949Z,-4.07
2023-01-29T21:13:24.951Z,-4.45
2023-01-29T21:16:10.907Z,-3.78
2023-01-29T21:18:57.119Z,-4.17
2023-01-29T21:21:43.016Z,-4.47
2023-01-29T21:24:28.936Z,-3.85
2023-01-29T21:27:14.963Z,-3.58
2023-01-29T21:30:00.885Z,-3.77
2023-01-29T21:32:49.701Z,-3.51
2023-01-29T21:35:35.638Z,-3.55
2023-01-29T21:38:21.605Z,-3.35
2023-01-29T21:41:07.725Z,-3.06
2023-01-29T21:43:53.775Z,-2.30
2023-01-29T21:46:39.598Z,-2.14
2023-01-29T21:49:25.595Z,-1.94
2023-01-29T21:52:11.633Z,-2.23
2023-01-29T21:54:57.599Z,-2.36
2023-01-29T21:57:43.583Z,-1.77
2023-01-29T22:00:29.519Z,-1.23
2023-01-29T22:03:15.507Z,-1.17
2023-01-29T22:06:01.577Z,-1.56
2023-01-29T22:08:47.411Z,-1.40
2023-01-29T22:11:33.486Z,-1.68
2023-01-29T22:14:19.356Z,-2.09
2023-01-29T22:17:05.435Z,-3.14
2023-01-29T22:19:51.446Z,-3.13
2023-01-29T22:22:37.222Z,-3.26
2023-01-29T22:25:23.255Z,-3.08
2023-01-29T22:28:09.124Z,-2.53
2023-01-29T22:30:55.213Z,-2.63
2023-01-29T22:33:41.178Z,-2.49
2023-01-29T22:36:27.173Z,-2.77
2023-01-29T22:39:13.102Z,-3.05
2023-01-29T22:41:59.152Z,-2.67
2023-01-29T22:44:44.960Z,-2.17
2023-01-29T22:47:30.817Z,-1.65
2023-01-29T22:50:17.210Z,-1.37
2023-01-29T22:53:03.450Z,-1.07
2023-01-29T22:55:49.344Z,-0.92
2023-01-29T22:58:35.171Z,-1.12
2023-01-29T23:01:21.174Z,-0.60
2023-01-29T23:04:07.200Z,-0.45
2023-01-29T23:06:52.979Z,-0.25
2023-01-29T23:09:38.911Z,-0.44
2023-01-29T23:12:26.856Z,-0.06
2023-01-29T23:15:12.592Z,0.05
2023-01-29T23:17:58.469Z,0.31
2023-01-29T23:20:44.570Z,0.31
2023-01-29T23:23:30.417Z,0.64
2023-01-29T23:26:16.512Z,0.61
2023-01-29T23:29:02.454Z,0.45
2023-01-29T23:31:48.673Z,0.60
2023-01-29T23:34:35.014Z,0.67
2023-01-29T23:37:20.850Z,1.13
2023-01-29T23:40:06.811Z,1.27
2023-01-29T23:42:52.631Z,1.54
2023-01-29T23:45:38.487Z,1.18
2023-01-29T23:48:24.409Z,0.95
2023-01-29T23:51:10.306Z,1.30
2023-01-29T23:53:56.155Z,1.63
2023-01-29T23:56:42.081Z,1.71
2023-01-29T23:59:27.898Z,1.84
